Anita, Pennsylvania
Current Conditions -  °F | °C
As of 10:53 AM on Friday 19 Dec 2014 (Local Time) from KDUJ Reporting Station
Overcast Overcast  
Wind Chill: 18°   Ceiling: 1500
Heat Index: 27°   Visibility: 10mi
Dew Point: 22°   Wind: 9mph
Humidity: 81%   Direction: 320°NW
Pressure: 30.11"   Gusts: NA
Location:  41°N, 78.96°W
Report Text: KDUJ 191553Z AUTO 32008KT 10SM BKN015 OVC020 M03/M06 A3011 RMK AO2 SLP217 T10281056
Loading
Personal Weather Stations






























Interactive Weather Map New forecast layout! Learn more

10-Day Weather Forecast

Advertisements
Track Severe Weather on mobile